createdAt,value
2018-01-31T01:52:21.006Z,5
2018-01-31T01:52:53.887Z,4.92
2018-01-31T01:53:34.446Z,5.05
2018-01-31T01:54:15.009Z,5.05
2018-01-31T01:54:55.572Z,4.92
2018-01-31T01:55:36.127Z,4.96
2018-01-31T01:56:16.683Z,4.92
2018-01-31T01:56:57.228Z,4.93
2018-01-31T01:57:37.799Z,4.94
2018-01-31T01:58:18.349Z,4.94
2018-01-31T01:58:58.902Z,4.94
2018-01-31T01:59:39.466Z,4.96
2018-01-31T02:00:20.026Z,5
2018-01-31T02:01:00.610Z,4.94
2018-01-31T02:01:41.165Z,4.9
2018-01-31T02:02:21.721Z,4.93
2018-01-31T02:03:02.279Z,4.97
2018-01-31T02:03:42.848Z,4.99
2018-01-31T02:04:23.470Z,4.93
2018-01-31T02:05:03.955Z,4.89
2018-01-31T02:05:44.545Z,4.96
2018-01-31T02:06:25.112Z,4.96
2018-01-31T02:07:05.664Z,4.94
2018-01-31T02:07:46.225Z,4.9
2018-01-31T02:08:26.795Z,4.93
2018-01-31T02:09:07.355Z,4.77
2018-01-31T02:09:47.929Z,4.75
2018-01-31T02:10:28.481Z,4.74
2018-01-31T02:11:09.045Z,4.73
2018-01-31T02:11:49.610Z,4.77
2018-01-31T02:12:30.170Z,4.75
2018-01-31T02:13:10.741Z,4.7
2018-01-31T02:13:51.297Z,4.68
2018-01-31T02:14:31.859Z,4.68
2018-01-31T02:15:12.434Z,4.68
2018-01-31T02:15:52.997Z,4.6
2018-01-31T02:16:33.550Z,4.7
2018-01-31T02:17:14.112Z,4.59
2018-01-31T02:17:54.671Z,4.59
2018-01-31T02:18:35.238Z,4.63
2018-01-31T02:19:15.802Z,4.63
2018-01-31T02:19:56.379Z,4.59
2018-01-31T02:20:36.932Z,4.63
2018-01-31T02:21:17.483Z,4.63
2018-01-31T02:21:58.035Z,4.62
2018-01-31T02:22:38.622Z,4.62
2018-01-31T02:23:19.187Z,4.67
2018-01-31T02:23:59.759Z,4.6
2018-01-31T02:24:40.313Z,4.67
2018-01-31T02:25:20.883Z,4.67
2018-01-31T02:26:01.439Z,4.66
2018-01-31T02:26:42.006Z,4.63
2018-01-31T02:27:22.568Z,4.55
2018-01-31T02:28:03.123Z,4.5
2018-01-31T02:28:43.677Z,4.52
2018-01-31T02:29:24.249Z,4.52
2018-01-31T02:30:04.830Z,4.52
2018-01-31T02:30:45.387Z,4.55
2018-01-31T02:31:25.970Z,4.55
2018-01-31T02:32:06.533Z,4.52
2018-01-31T02:32:47.097Z,4.56
2018-01-31T02:33:27.658Z,4.52
2018-01-31T02:34:08.237Z,4.52
2018-01-31T02:34:48.805Z,4.55
2018-01-31T02:35:29.335Z,4.52
2018-01-31T02:36:09.899Z,4.53
2018-01-31T02:36:50.493Z,4.5
2018-01-31T02:37:31.105Z,4.5
2018-01-31T02:38:11.687Z,4.55
2018-01-31T02:38:52.248Z,4.52
2018-01-31T02:39:32.806Z,4.55
2018-01-31T02:40:13.377Z,4.49
2018-01-31T02:40:53.941Z,4.49
2018-01-31T02:41:34.495Z,4.45
2018-01-31T02:42:15.060Z,4.45
2018-01-31T02:42:55.607Z,4.4
2018-01-31T02:43:36.174Z,4.44
2018-01-31T02:44:16.723Z,4.44
2018-01-31T02:44:57.306Z,4.37
2018-01-31T02:45:37.850Z,4.48
2018-01-31T02:46:18.405Z,4.44
2018-01-31T02:46:58.989Z,4.34
2018-01-31T02:47:39.603Z,4.45
2018-01-31T02:48:20.101Z,4.42
2018-01-31T02:49:00.669Z,4.44
2018-01-31T02:49:41.250Z,4.42
2018-01-31T02:50:21.813Z,4.48
2018-01-31T02:51:02.427Z,4.42
2018-01-31T02:51:43.007Z,4.44
2018-01-31T02:52:23.563Z,4.48
2018-01-31T02:53:04.117Z,4.48
2018-01-31T02:53:44.700Z,4.38
2018-01-31T02:54:25.266Z,4.41
2018-01-31T02:55:05.842Z,4.41
2018-01-31T02:55:46.402Z,4.42
2018-01-31T02:56:26.953Z,4.44
2018-01-31T02:57:07.521Z,4.48
2018-01-31T02:57:48.107Z,4.32
2018-01-31T02:58:28.672Z,4.38
2018-01-31T02:59:09.236Z,4.44
2018-01-31T02:59:49.801Z,4.41
2018-01-31T03:00:30.355Z,4.44
2018-01-31T03:01:10.910Z,4.42
2018-01-31T03:01:51.461Z,4.41
2018-01-31T03:02:32.018Z,4.4
2018-01-31T03:03:12.581Z,4.45
2018-01-31T03:03:53.131Z,4.42
2018-01-31T03:04:33.683Z,4.41
2018-01-31T03:05:14.232Z,4.4
2018-01-31T03:05:54.783Z,4.42
2018-01-31T03:06:35.336Z,4.48
2018-01-31T03:07:15.890Z,4.45
2018-01-31T03:07:56.443Z,4.44
2018-01-31T03:08:36.997Z,4.52
2018-01-31T03:09:17.548Z,4.4
2018-01-31T03:09:58.122Z,4.42
2018-01-31T03:10:38.677Z,4.38
2018-01-31T03:11:19.247Z,4.45
2018-01-31T03:11:59.798Z,4.41
2018-01-31T03:12:40.355Z,4.45
2018-01-31T03:13:20.908Z,4.4
2018-01-31T03:14:01.458Z,4.48
2018-01-31T03:14:42.028Z,4.4
2018-01-31T03:15:22.618Z,4.45
2018-01-31T03:16:03.173Z,4.38
2018-01-31T03:16:43.729Z,4.38
2018-01-31T03:17:24.283Z,4.35
2018-01-31T03:18:04.840Z,4.41
2018-01-31T03:18:45.393Z,4.4
2018-01-31T03:19:25.948Z,4.35
2018-01-31T03:20:06.509Z,4.34
2018-01-31T03:20:47.069Z,4.32
2018-01-31T03:21:27.623Z,4.28
2018-01-31T03:22:08.195Z,4.24
2018-01-31T03:22:48.754Z,4.24
2018-01-31T03:23:29.306Z,4.22
2018-01-31T03:24:09.863Z,4.23
2018-01-31T03:24:50.460Z,4.22
2018-01-31T03:25:31.010Z,4.23
2018-01-31T03:26:11.642Z,4.26
2018-01-31T03:26:52.212Z,4.24
2018-01-31T03:27:32.777Z,4.22
2018-01-31T03:28:13.344Z,4.24
2018-01-31T03:28:53.890Z,4.23
2018-01-31T03:29:34.440Z,4.23
2018-01-31T03:30:14.999Z,4.26
2018-01-31T03:30:55.559Z,4.22
2018-01-31T03:31:36.116Z,4.19
2018-01-31T03:32:16.677Z,4.24
2018-01-31T03:32:57.232Z,4.24
2018-01-31T03:33:37.791Z,4.23
2018-01-31T03:34:18.352Z,4.19
2018-01-31T03:34:58.936Z,4.19
2018-01-31T03:35:39.493Z,4.23
2018-01-31T03:36:20.053Z,4.26
2018-01-31T03:37:00.619Z,4.16
2018-01-31T03:37:41.198Z,4.16
2018-01-31T03:38:21.765Z,4.23
2018-01-31T03:39:02.327Z,4.16
2018-01-31T03:39:42.875Z,4.16
2018-01-31T03:40:23.431Z,4.19
2018-01-31T03:41:03.984Z,4.17
2018-01-31T03:41:44.549Z,4.19
2018-01-31T03:42:25.107Z,4.14
2018-01-31T03:43:05.674Z,4.2
2018-01-31T03:43:46.241Z,4.19
2018-01-31T03:44:26.800Z,4.2
2018-01-31T03:45:07.385Z,4.28
2018-01-31T03:45:47.933Z,4.19
2018-01-31T03:46:28.532Z,4.19
2018-01-31T03:47:09.088Z,4.24
2018-01-31T03:47:49.644Z,4.19
2018-01-31T03:48:30.206Z,4.22
2018-01-31T03:49:10.774Z,4.17
2018-01-31T03:49:51.339Z,4.17
2018-01-31T03:50:31.899Z,4.17
2018-01-31T03:51:12.449Z,4.17
2018-01-31T03:51:53.000Z,4.17
2018-01-31T03:52:33.558Z,4.23
2018-01-31T03:53:14.124Z,4.22
2018-01-31T03:53:54.674Z,4.14
2018-01-31T03:54:35.231Z,4.16
2018-01-31T03:55:15.784Z,4.2
2018-01-31T03:55:56.356Z,4.08
2018-01-31T03:56:36.917Z,4.08
2018-01-31T03:57:17.474Z,4.13
2018-01-31T03:57:58.031Z,4.08
2018-01-31T03:58:38.607Z,4.04
2018-01-31T03:59:19.157Z,4.13
2018-01-31T03:59:59.714Z,4.08
2018-01-31T04:00:40.277Z,3.99
2018-01-31T04:01:20.836Z,4.01
2018-01-31T04:02:01.380Z,4.02
2018-01-31T04:02:41.944Z,4.04
2018-01-31T04:03:22.504Z,4.04
2018-01-31T04:04:03.057Z,3.99
2018-01-31T04:04:43.610Z,4.02
2018-01-31T04:05:24.159Z,4.1
2018-01-31T04:06:04.721Z,4.06
2018-01-31T04:06:45.276Z,3.98
2018-01-31T04:07:25.829Z,3.99
2018-01-31T04:08:06.394Z,3.96
2018-01-31T04:08:46.942Z,3.99
2018-01-31T04:09:27.486Z,3.96
2018-01-31T04:10:08.073Z,3.98
2018-01-31T04:10:48.640Z,3.99
2018-01-31T04:11:29.189Z,4.01
2018-01-31T04:12:09.762Z,4.04
2018-01-31T04:12:50.318Z,4.01
2018-01-31T04:13:30.879Z,3.95
2018-01-31T04:14:11.439Z,3.94
2018-01-31T04:14:52.016Z,3.99
2018-01-31T04:15:32.562Z,4.01
2018-01-31T04:16:13.129Z,3.98
2018-01-31T04:16:53.716Z,3.94
2018-01-31T04:17:34.281Z,3.96
2018-01-31T04:18:14.833Z,3.99
2018-01-31T04:18:55.386Z,3.91
2018-01-31T04:19:35.937Z,3.96
2018-01-31T04:20:16.506Z,3.94
2018-01-31T04:20:57.083Z,3.91
2018-01-31T04:21:37.647Z,3.96
2018-01-31T04:22:18.225Z,3.96
2018-01-31T04:22:58.807Z,3.96
2018-01-31T04:23:39.376Z,3.96
2018-01-31T04:24:19.945Z,3.96
2018-01-31T04:25:00.504Z,3.96
2018-01-31T04:25:41.087Z,3.83
2018-01-31T04:26:21.630Z,3.88
2018-01-31T04:27:02.203Z,3.92
2018-01-31T04:27:42.757Z,3.88
2018-01-31T04:28:23.328Z,3.94
2018-01-31T04:29:03.889Z,3.86
2018-01-31T04:29:44.445Z,3.88
2018-01-31T04:30:24.990Z,3.87
2018-01-31T04:31:05.549Z,3.91
2018-01-31T04:31:46.100Z,3.91
2018-01-31T04:32:26.684Z,3.91
2018-01-31T04:33:07.245Z,3.96
2018-01-31T04:33:47.818Z,3.83
2018-01-31T04:34:28.373Z,3.95
2018-01-31T04:35:08.927Z,3.96
2018-01-31T04:35:49.486Z,3.94
2018-01-31T04:36:30.067Z,3.91
2018-01-31T04:37:10.633Z,3.91
2018-01-31T04:37:51.187Z,3.88
2018-01-31T04:38:31.739Z,3.88
2018-01-31T04:39:12.329Z,3.98
2018-01-31T04:39:52.896Z,4.05
2018-01-31T04:40:33.451Z,3.98
2018-01-31T04:41:14.007Z,4.05
2018-01-31T04:41:54.580Z,4.05
2018-01-31T04:42:35.161Z,4.01
2018-01-31T04:43:15.717Z,4.01
2018-01-31T04:43:56.268Z,4.05
2018-01-31T04:44:36.827Z,4.02
2018-01-31T04:45:17.387Z,4.1
2018-01-31T04:45:57.940Z,4.1
2018-01-31T04:46:38.511Z,4.13
2018-01-31T04:47:19.071Z,4.06
2018-01-31T04:47:59.632Z,4.13
2018-01-31T04:48:40.211Z,4.08
2018-01-31T04:49:20.772Z,4.05
2018-01-31T04:50:01.339Z,4.06
2018-01-31T04:50:41.965Z,4.1
2018-01-31T04:51:22.530Z,4.04
2018-01-31T04:52:03.086Z,4.1
2018-01-31T04:52:43.635Z,4.05
2018-01-31T04:53:24.205Z,4.08
2018-01-31T04:54:04.776Z,4.06
2018-01-31T04:54:45.330Z,4.04
2018-01-31T04:55:25.909Z,4.08
2018-01-31T04:56:06.484Z,4.05
2018-01-31T04:56:47.036Z,4.12
2018-01-31T04:57:27.582Z,4.13
2018-01-31T04:58:08.171Z,4.23
2018-01-31T04:58:48.730Z,4.16
2018-01-31T04:59:29.298Z,4.17
2018-01-31T05:00:09.861Z,4.13
2018-01-31T05:00:50.447Z,4.17
2018-01-31T05:01:30.994Z,4.17
2018-01-31T05:02:11.578Z,4.2
2018-01-31T05:02:52.134Z,4.17
2018-01-31T05:03:32.702Z,4.2
2018-01-31T05:04:13.253Z,4.19
2018-01-31T05:04:53.809Z,4.2
2018-01-31T05:05:34.373Z,4.2
2018-01-31T05:06:14.941Z,4.22
2018-01-31T05:06:55.493Z,4.17
2018-01-31T05:07:36.054Z,4.24
2018-01-31T05:08:16.605Z,4.26
2018-01-31T05:08:57.197Z,4.26
2018-01-31T05:09:37.753Z,4.26
2018-01-31T05:10:18.324Z,4.23
2018-01-31T05:10:58.897Z,4.26
2018-01-31T05:11:39.445Z,4.28
2018-01-31T05:12:19.999Z,4.26
2018-01-31T05:13:00.572Z,4.23
2018-01-31T05:13:41.124Z,4.3
2018-01-31T05:14:21.676Z,4.3
2018-01-31T05:15:02.236Z,4.22
2018-01-31T05:15:42.793Z,4.23
2018-01-31T05:16:23.364Z,4.24
2018-01-31T05:17:03.921Z,4.22
2018-01-31T05:17:44.482Z,4.2
2018-01-31T05:18:25.056Z,4.26
2018-01-31T05:19:05.628Z,4.26
2018-01-31T05:19:46.194Z,4.28
2018-01-31T05:20:26.754Z,4.17
2018-01-31T05:21:07.316Z,4.19
2018-01-31T05:21:47.878Z,4.19
2018-01-31T05:22:28.432Z,4.13
2018-01-31T05:23:08.994Z,4.12
2018-01-31T05:23:49.559Z,4.08
2018-01-31T05:24:30.135Z,4.05
2018-01-31T05:25:10.705Z,4.04
2018-01-31T05:25:51.264Z,4.06
2018-01-31T05:26:31.815Z,3.98
2018-01-31T05:27:12.373Z,3.91
2018-01-31T05:27:52.942Z,3.86
2018-01-31T05:28:33.499Z,3.87
2018-01-31T05:29:14.051Z,3.83
2018-01-31T05:29:54.605Z,3.78
2018-01-31T05:30:35.164Z,3.88
2018-01-31T05:31:15.762Z,3.84
2018-01-31T05:31:56.332Z,3.86
2018-01-31T05:32:37.008Z,3.8
2018-01-31T05:33:17.562Z,3.77
2018-01-31T05:33:58.135Z,3.68
2018-01-31T05:34:38.690Z,3.81
2018-01-31T05:35:19.256Z,3.78
2018-01-31T05:35:59.810Z,3.81
2018-01-31T05:36:40.390Z,3.83
2018-01-31T05:37:20.948Z,3.84
2018-01-31T05:38:01.522Z,3.78
2018-01-31T05:38:42.081Z,3.84
2018-01-31T05:39:22.638Z,3.88
2018-01-31T05:40:03.212Z,3.83
2018-01-31T05:40:43.771Z,3.77
2018-01-31T05:41:24.327Z,3.78
2018-01-31T05:42:04.887Z,3.78
2018-01-31T05:42:45.459Z,3.8
2018-01-31T05:43:26.010Z,3.8
2018-01-31T05:44:06.555Z,3.76
2018-01-31T05:44:47.093Z,3.7
2018-01-31T05:45:27.718Z,3.7
2018-01-31T05:46:08.259Z,3.77
2018-01-31T05:46:48.780Z,3.76
2018-01-31T05:47:29.337Z,3.8
2018-01-31T05:48:09.915Z,3.8
2018-01-31T05:48:50.490Z,3.76
2018-01-31T05:49:31.051Z,3.8
2018-01-31T05:50:11.598Z,3.8
2018-01-31T05:50:52.150Z,3.81
2018-01-31T05:51:32.701Z,3.76
2018-01-31T05:52:13.269Z,3.8
2018-01-31T05:52:53.825Z,3.86
2018-01-31T05:53:34.385Z,3.86
2018-01-31T05:54:14.944Z,3.92
2018-01-31T05:54:55.502Z,3.86
2018-01-31T05:55:36.053Z,3.83
2018-01-31T05:56:16.609Z,3.86
2018-01-31T05:56:57.161Z,3.87
2018-01-31T05:57:37.726Z,3.91
2018-01-31T05:58:18.294Z,3.84
2018-01-31T05:58:58.843Z,3.92
2018-01-31T05:59:39.384Z,3.84
2018-01-31T06:00:19.940Z,3.76
2018-01-31T06:01:00.504Z,3.69
2018-01-31T06:01:41.059Z,3.81
2018-01-31T06:02:21.619Z,3.8
2018-01-31T06:03:02.177Z,3.78
2018-01-31T06:03:42.753Z,3.78
2018-01-31T06:04:23.304Z,3.8
2018-01-31T06:05:03.861Z,3.78
2018-01-31T06:05:44.408Z,3.78
2018-01-31T06:06:24.984Z,3.78
2018-01-31T06:07:05.556Z,3.78
2018-01-31T06:07:46.157Z,3.81
2018-01-31T06:08:26.797Z,3.83
2018-01-31T06:09:07.366Z,3.84
2018-01-31T06:09:47.930Z,3.78
2018-01-31T06:10:28.645Z,3.83
2018-01-31T06:11:09.206Z,3.92
2018-01-31T06:11:49.801Z,3.84
2018-01-31T06:12:30.350Z,3.91
2018-01-31T06:13:10.901Z,3.84
2018-01-31T06:13:51.448Z,3.8
2018-01-31T06:14:32.075Z,3.83
2018-01-31T06:15:12.589Z,3.87
2018-01-31T06:15:53.144Z,3.87
2018-01-31T06:16:33.710Z,3.91
2018-01-31T06:17:14.271Z,3.84
2018-01-31T06:17:54.847Z,3.91
2018-01-31T06:18:35.442Z,3.99
2018-01-31T06:19:15.988Z,3.87
2018-01-31T06:19:56.550Z,3.95
2018-01-31T06:20:37.103Z,3.92
2018-01-31T06:21:17.665Z,4.01
2018-01-31T06:21:58.218Z,3.96
2018-01-31T06:22:39.262Z,4.05
2018-01-31T06:23:19.798Z,3.99
2018-01-31T06:24:00.363Z,3.98
2018-01-31T06:24:41.779Z,4.01
2018-01-31T06:25:22.327Z,4.05
2018-01-31T06:26:02.896Z,4.04
2018-01-31T06:26:43.454Z,4.08
2018-01-31T06:27:23.994Z,4.05
2018-01-31T06:28:04.569Z,4.04
2018-01-31T06:28:45.144Z,3.99
2018-01-31T06:29:25.709Z,4.1
2018-01-31T06:30:06.278Z,4.1
2018-01-31T06:30:46.863Z,4.13
2018-01-31T06:31:27.443Z,4.17
2018-01-31T06:32:08.007Z,4.26
2018-01-31T06:32:48.584Z,4.45
2018-01-31T06:33:29.217Z,4.63
2018-01-31T06:34:09.764Z,4.74
2018-01-31T06:34:50.301Z,4.93
2018-01-31T06:35:30.895Z,5.02
2018-01-31T06:36:11.703Z,5.1
2018-01-31T06:36:52.272Z,5.14
2018-01-31T06:37:32.856Z,5.3
2018-01-31T06:38:13.414Z,5.43
2018-01-31T06:38:54.367Z,5.62
2018-01-31T06:39:34.936Z,5.72
2018-01-31T06:40:15.501Z,5.89
2018-01-31T06:40:56.074Z,5.99
2018-01-31T06:41:36.627Z,6.12
2018-01-31T06:42:17.219Z,6.28
2018-01-31T06:42:57.809Z,6.35
2018-01-31T06:43:38.739Z,6.6
2018-01-31T06:44:19.499Z,6.7
2018-01-31T06:45:00.144Z,6.69
2018-01-31T06:45:40.771Z,6.79
2018-01-31T06:46:21.347Z,6.89
2018-01-31T06:47:01.997Z,6.88
2018-01-31T06:47:42.618Z,7
2018-01-31T06:48:23.209Z,7.13
2018-01-31T06:49:03.782Z,7.13
2018-01-31T06:49:44.342Z,7.11
2018-01-31T06:50:24.926Z,7.2
2018-01-31T06:51:05.499Z,7.23
2018-01-31T06:51:46.051Z,7.2
2018-01-31T06:52:26.600Z,7.15
2018-01-31T06:53:07.177Z,7.02
2018-01-31T06:53:47.886Z,6.92
2018-01-31T06:54:28.436Z,6.82
2018-01-31T06:55:09.208Z,6.74
2018-01-31T06:55:49.733Z,6.6
2018-01-31T06:56:30.306Z,6.46
2018-01-31T06:57:10.896Z,6.28
2018-01-31T06:57:51.458Z,6.3
2018-01-31T06:58:32.014Z,6.17
2018-01-31T06:59:12.568Z,6.11
2018-01-31T06:59:53.141Z,6.02
2018-01-31T07:00:33.710Z,6.05
2018-01-31T07:01:14.260Z,5.93
2018-01-31T07:01:54.845Z,5.91
2018-01-31T07:02:35.399Z,5.86
2018-01-31T07:03:16.055Z,5.8
2018-01-31T07:03:56.810Z,5.71
2018-01-31T07:04:37.339Z,5.69
2018-01-31T07:05:17.975Z,5.65
2018-01-31T07:05:58.558Z,5.62
2018-01-31T07:06:39.971Z,5.61
2018-01-31T07:07:20.580Z,5.51
2018-01-31T07:08:01.157Z,5.54
2018-01-31T07:08:41.752Z,5.54
2018-01-31T07:09:22.292Z,5.43
2018-01-31T07:10:02.855Z,5.38
2018-01-31T07:10:43.431Z,5.47
2018-01-31T07:11:24.000Z,5.38
2018-01-31T07:12:04.547Z,5.41
2018-01-31T07:12:45.112Z,5.47
2018-01-31T07:13:25.705Z,5.46
2018-01-31T07:14:06.271Z,5.41
2018-01-31T07:14:46.833Z,5.36
2018-01-31T07:15:27.399Z,5.32
2018-01-31T07:16:08.008Z,5.35
2018-01-31T07:16:48.574Z,5.32
2018-01-31T07:17:29.118Z,5.35
2018-01-31T07:18:09.668Z,5.3
2018-01-31T07:18:50.243Z,5.18
2018-01-31T07:19:30.819Z,5.23
2018-01-31T07:20:11.888Z,5.25
2018-01-31T07:20:52.273Z,5.28
2018-01-31T07:21:32.831Z,5.26
2018-01-31T07:22:13.400Z,5.29
2018-01-31T07:22:53.963Z,5.28
2018-01-31T07:23:34.527Z,5.17
2018-01-31T07:24:15.105Z,5.17
2018-01-31T07:24:55.715Z,5.14
2018-01-31T07:25:38.179Z,5.04
2018-01-31T07:26:18.866Z,5.08
2018-01-31T07:26:59.477Z,5.11
2018-01-31T07:27:40.081Z,5.08
2018-01-31T07:28:20.738Z,5.08
2018-01-31T07:29:01.585Z,5.05
2018-01-31T07:29:42.165Z,5.04
2018-01-31T07:30:22.835Z,5.08
2018-01-31T07:31:03.702Z,5.02
2018-01-31T07:31:44.222Z,4.99
2018-01-31T07:32:24.775Z,5.11
2018-01-31T07:33:05.334Z,5.08
2018-01-31T07:33:46.565Z,5.02
2018-01-31T07:34:27.134Z,5
2018-01-31T07:35:07.766Z,5.1
2018-01-31T07:35:48.418Z,5.11
2018-01-31T07:36:29.918Z,5.08
2018-01-31T07:37:10.475Z,5.05
2018-01-31T07:37:51.038Z,5.05
2018-01-31T07:38:31.622Z,5.08
2018-01-31T07:39:12.247Z,5.1
2018-01-31T07:39:52.818Z,5.12
2018-01-31T07:40:33.364Z,5.07
2018-01-31T07:41:13.923Z,5.1
2018-01-31T07:41:54.494Z,5.05
2018-01-31T07:42:35.099Z,5.05
2018-01-31T07:43:15.659Z,5.07
2018-01-31T07:43:56.381Z,5.15
2018-01-31T07:44:36.895Z,5.1
2018-01-31T07:45:17.454Z,5.02
2018-01-31T07:45:58.023Z,5.04
2018-01-31T07:46:38.586Z,5.14
2018-01-31T07:47:19.185Z,5.15
2018-01-31T07:48:00.700Z,5.15
2018-01-31T07:48:40.797Z,5.18
2018-01-31T07:49:21.362Z,5.14
2018-01-31T07:50:01.936Z,5.07
2018-01-31T07:50:42.589Z,5.11
2018-01-31T07:51:23.195Z,5.07
2018-01-31T07:52:03.860Z,5.17
2018-01-31T07:52:44.412Z,5.18
2018-01-31T07:53:25.280Z,5.15
2018-01-31T07:54:05.863Z,5.12
2018-01-31T07:54:46.423Z,5.26
2018-01-31T07:55:26.976Z,5.25
2018-01-31T07:56:07.535Z,5.26
2018-01-31T07:56:48.098Z,5.26
2018-01-31T07:57:28.666Z,5.26
2018-01-31T07:58:09.227Z,5.26
2018-01-31T07:58:49.784Z,5.21
2018-01-31T07:59:30.335Z,5.25
2018-01-31T08:00:10.891Z,5.28
2018-01-31T08:00:51.446Z,5.26
2018-01-31T08:01:32.014Z,5.28
2018-01-31T08:02:12.576Z,5.25
2018-01-31T08:02:53.151Z,5.29
2018-01-31T08:03:33.720Z,5.28
2018-01-31T08:04:14.278Z,5.21
2018-01-31T08:04:54.833Z,5.3
2018-01-31T08:05:35.394Z,5.28
2018-01-31T08:06:15.949Z,5.3
2018-01-31T08:06:56.515Z,5.28
2018-01-31T08:07:37.051Z,5.35
2018-01-31T08:08:17.600Z,5.32
2018-01-31T08:08:58.153Z,5.3
2018-01-31T08:09:38.706Z,5.35
2018-01-31T08:10:20.226Z,5.38
2018-01-31T08:11:00.784Z,5.29
2018-01-31T08:11:41.355Z,5.3
2018-01-31T08:12:21.926Z,5.33
2018-01-31T08:13:02.483Z,5.33
2018-01-31T08:13:43.038Z,5.36
2018-01-31T08:14:23.590Z,5.33
2018-01-31T08:15:04.145Z,5.35
2018-01-31T08:15:44.691Z,5.36
2018-01-31T08:16:25.246Z,5.29
2018-01-31T08:17:05.804Z,5.35
2018-01-31T08:17:46.342Z,5.43
2018-01-31T08:18:26.895Z,5.35
2018-01-31T08:19:07.443Z,5.32
2018-01-31T08:19:47.989Z,5.28
2018-01-31T08:20:28.552Z,5.46
2018-01-31T08:21:09.153Z,5.32
2018-01-31T08:21:49.722Z,5.43
2018-01-31T08:22:30.276Z,5.38
2018-01-31T08:23:10.838Z,5.36
2018-01-31T08:23:51.400Z,5.32
2018-01-31T08:24:31.954Z,5.35
2018-01-31T08:25:12.514Z,5.41
2018-01-31T08:25:53.073Z,5.33
2018-01-31T08:26:33.616Z,5.41
2018-01-31T08:27:14.244Z,5.43
2018-01-31T08:27:54.805Z,5.33
2018-01-31T08:28:35.359Z,5.32
2018-01-31T08:29:15.958Z,5.36
2018-01-31T08:29:56.510Z,5.39
2018-01-31T08:30:37.076Z,5.5
2018-01-31T08:31:17.639Z,5.33
2018-01-31T08:31:58.191Z,5.36
2018-01-31T08:32:38.734Z,5.44
2018-01-31T08:33:19.290Z,5.47
2018-01-31T08:33:59.852Z,5.44
2018-01-31T08:34:40.409Z,5.39
2018-01-31T08:35:20.967Z,5.36
2018-01-31T08:36:01.526Z,5.44
2018-01-31T08:36:42.091Z,5.43
2018-01-31T08:37:22.645Z,5.41
2018-01-31T08:38:03.194Z,5.51
2018-01-31T08:38:43.747Z,5.47
2018-01-31T08:39:24.299Z,5.53
2018-01-31T08:40:04.865Z,5.53
2018-01-31T08:40:45.401Z,5.53
2018-01-31T08:41:26.004Z,5.47
2018-01-31T08:42:06.555Z,5.5
2018-01-31T08:42:47.129Z,5.57
2018-01-31T08:43:27.686Z,5.51
2018-01-31T08:44:08.234Z,5.48
2018-01-31T08:44:48.789Z,5.56
2018-01-31T08:45:29.333Z,5.59
2018-01-31T08:46:09.918Z,5.64
2018-01-31T08:46:50.469Z,5.66
2018-01-31T08:47:31.019Z,5.66
2018-01-31T08:48:11.568Z,5.57
2018-01-31T08:48:52.142Z,5.62
2018-01-31T08:49:32.694Z,5.66
2018-01-31T08:50:13.248Z,5.64
2018-01-31T08:50:53.824Z,5.62
2018-01-31T08:51:34.392Z,5.66
2018-01-31T08:52:14.953Z,5.71
2018-01-31T08:52:55.530Z,5.66
2018-01-31T08:53:36.078Z,5.72
2018-01-31T08:54:16.636Z,5.75
2018-01-31T08:54:57.182Z,5.69
2018-01-31T08:55:37.734Z,5.71
2018-01-31T08:56:18.285Z,5.73
2018-01-31T08:56:58.849Z,5.72
2018-01-31T08:57:39.409Z,5.82
2018-01-31T08:58:19.962Z,5.72
2018-01-31T08:59:00.532Z,5.71
2018-01-31T08:59:41.099Z,5.73
2018-01-31T09:00:21.647Z,5.79
2018-01-31T09:01:02.211Z,5.73
2018-01-31T09:01:42.776Z,5.73
2018-01-31T09:02:23.312Z,5.86
2018-01-31T09:03:03.868Z,5.73
2018-01-31T09:03:44.418Z,5.76
2018-01-31T09:04:24.966Z,5.79
2018-01-31T09:05:05.520Z,5.76
2018-01-31T09:05:46.064Z,5.75
2018-01-31T09:06:26.616Z,5.82
2018-01-31T09:07:07.170Z,5.76
2018-01-31T09:07:47.722Z,5.86
2018-01-31T09:08:28.267Z,5.8
2018-01-31T09:09:08.814Z,5.76
2018-01-31T09:09:49.373Z,5.8
2018-01-31T09:10:29.922Z,5.8
2018-01-31T09:11:10.474Z,5.79
2018-01-31T09:11:51.025Z,5.8
2018-01-31T09:12:31.577Z,5.84
2018-01-31T09:13:12.125Z,5.86
2018-01-31T09:13:52.684Z,5.9
2018-01-31T09:14:33.230Z,5.97
2018-01-31T09:15:13.783Z,5.89
2018-01-31T09:15:54.335Z,5.93
2018-01-31T09:16:34.883Z,5.94
2018-01-31T09:17:15.434Z,5.97
2018-01-31T09:17:55.989Z,5.86
2018-01-31T09:18:36.564Z,5.9
2018-01-31T09:19:17.132Z,5.91
2018-01-31T09:19:57.683Z,5.97
2018-01-31T09:20:38.254Z,5.99
2018-01-31T09:21:18.830Z,6.02
2018-01-31T09:21:59.370Z,5.91
2018-01-31T09:22:39.936Z,5.98
2018-01-31T09:23:20.500Z,5.99
2018-01-31T09:24:01.060Z,6.01
2018-01-31T09:24:41.596Z,5.99
2018-01-31T09:25:22.159Z,6.01
2018-01-31T09:26:02.728Z,6.02
2018-01-31T09:26:43.310Z,5.94
2018-01-31T09:27:23.866Z,6.09
2018-01-31T09:28:04.431Z,5.98
2018-01-31T09:28:44.987Z,6.08
2018-01-31T09:29:25.541Z,6.11
2018-01-31T09:30:06.089Z,6.16
2018-01-31T09:30:46.642Z,6.16
2018-01-31T09:31:27.205Z,6.04
2018-01-31T09:32:07.757Z,6.04
2018-01-31T09:32:48.307Z,6.04
2018-01-31T09:33:28.859Z,6.01
2018-01-31T09:34:09.412Z,6.05
2018-01-31T09:34:49.957Z,6.02
2018-01-31T09:35:30.528Z,5.99
2018-01-31T09:36:11.067Z,5.98
2018-01-31T09:36:51.616Z,5.99
2018-01-31T09:37:32.158Z,5.97
2018-01-31T09:38:12.719Z,5.98
2018-01-31T09:38:53.258Z,5.93
2018-01-31T09:39:33.803Z,6.05
2018-01-31T09:40:14.358Z,6.05
2018-01-31T09:40:54.916Z,6.05
2018-01-31T09:41:35.472Z,5.97
2018-01-31T09:42:16.038Z,6.07
2018-01-31T09:42:56.611Z,6.01
2018-01-31T09:43:37.183Z,6.05
2018-01-31T09:44:17.743Z,6.02
2018-01-31T09:44:58.283Z,6.07
2018-01-31T09:45:38.844Z,6.02
2018-01-31T09:46:19.401Z,6.14
2018-01-31T09:46:59.964Z,6.05
2018-01-31T09:47:40.557Z,6.19
2018-01-31T09:48:21.065Z,6.12
2018-01-31T09:49:01.628Z,6.16
2018-01-31T09:49:42.179Z,6.11
2018-01-31T09:50:22.745Z,6.11
2018-01-31T09:51:03.300Z,6.16
2018-01-31T09:51:43.916Z,6.14
2018-01-31T09:52:27.009Z,6.12
2018-01-31T09:53:05.027Z,6.12
2018-01-31T09:53:45.589Z,6.12
2018-01-31T09:54:26.141Z,6.16
2018-01-31T09:55:06.681Z,6.12
2018-01-31T09:55:47.246Z,6.17
2018-01-31T09:56:27.799Z,6.08
2018-01-31T09:57:08.356Z,6.11
2018-01-31T09:57:48.910Z,6.17
2018-01-31T09:58:29.476Z,6.12
2018-01-31T09:59:10.030Z,6.17
2018-01-31T09:59:50.586Z,6.17
2018-01-31T10:00:31.160Z,6.16
2018-01-31T10:01:11.715Z,6.16
2018-01-31T10:01:52.271Z,6.17
2018-01-31T10:02:32.836Z,6.14
2018-01-31T10:03:13.396Z,6.12
2018-01-31T10:03:53.954Z,6.2
2018-01-31T10:04:34.509Z,6.11
2018-01-31T10:05:15.063Z,6.16
2018-01-31T10:05:55.627Z,6.09
2018-01-31T10:06:36.205Z,6.2
2018-01-31T10:07:16.766Z,6.22
2018-01-31T10:07:57.345Z,6.19
2018-01-31T10:08:37.896Z,6.2
2018-01-31T10:09:18.442Z,6.2
2018-01-31T10:09:58.990Z,6.26
2018-01-31T10:10:39.546Z,6.24
2018-01-31T10:11:20.095Z,6.19
2018-01-31T10:12:00.656Z,6.3
2018-01-31T10:12:41.208Z,6.27
2018-01-31T10:13:21.769Z,6.31
2018-01-31T10:14:02.333Z,6.33
2018-01-31T10:14:42.877Z,6.31
2018-01-31T10:15:23.412Z,6.28
2018-01-31T10:16:03.982Z,6.28
2018-01-31T10:16:44.542Z,6.28
2018-01-31T10:17:25.102Z,6.24
2018-01-31T10:18:05.672Z,6.3
2018-01-31T10:18:46.231Z,6.3
2018-01-31T10:19:26.836Z,6.36
2018-01-31T10:20:07.384Z,6.33
2018-01-31T10:20:47.936Z,6.27
2018-01-31T10:21:28.492Z,6.31
2018-01-31T10:22:09.052Z,6.28
2018-01-31T10:22:49.627Z,6.41
2018-01-31T10:23:30.192Z,6.36
2018-01-31T10:24:10.770Z,6.31
2018-01-31T10:24:51.327Z,6.45
2018-01-31T10:25:31.881Z,6.44
2018-01-31T10:26:12.425Z,6.39
2018-01-31T10:26:52.994Z,6.44
2018-01-31T10:27:33.547Z,6.41
2018-01-31T10:28:14.101Z,6.42
2018-01-31T10:28:54.657Z,6.42
2018-01-31T10:29:35.217Z,6.42
2018-01-31T10:30:15.776Z,6.38
2018-01-31T10:30:56.325Z,6.36
2018-01-31T10:31:37.046Z,6.36
2018-01-31T10:32:17.727Z,6.44
2018-01-31T10:32:58.485Z,6.44
2018-01-31T10:33:39.177Z,6.45
2018-01-31T10:34:19.930Z,6.45
2018-01-31T10:35:00.693Z,6.42
2018-01-31T10:35:41.403Z,6.42
2018-01-31T10:36:21.959Z,6.52
2018-01-31T10:37:02.528Z,6.52
2018-01-31T10:37:43.077Z,6.48
2018-01-31T10:38:23.640Z,6.51
2018-01-31T10:39:04.207Z,6.49
2018-01-31T10:39:44.769Z,6.56
2018-01-31T10:40:25.331Z,6.57
2018-01-31T10:41:05.895Z,6.59
2018-01-31T10:41:46.447Z,6.56
2018-01-31T10:42:27.057Z,6.6
2018-01-31T10:43:07.617Z,6.69
2018-01-31T10:43:48.181Z,6.6
2018-01-31T10:44:28.740Z,6.6
2018-01-31T10:45:09.317Z,6.56
2018-01-31T10:45:49.882Z,6.59
2018-01-31T10:46:30.450Z,6.59
2018-01-31T10:47:10.994Z,6.64
2018-01-31T10:47:51.553Z,6.74
2018-01-31T10:48:32.109Z,6.77
2018-01-31T10:49:12.669Z,6.69
2018-01-31T10:49:53.232Z,6.72
2018-01-31T10:50:33.783Z,6.69
2018-01-31T10:51:14.348Z,6.74
2018-01-31T10:51:54.913Z,6.72
2018-01-31T10:52:35.468Z,6.75
2018-01-31T10:53:16.017Z,6.66
2018-01-31T10:57:28.722Z,6.79